Cable Innovator — MVEP4 — position and weather

sailwx.info

Track history (hours):
 
Tides and Currents Weather Stations Pressure Air Temp Water Temp Dewpoint Dewpoint Depression Visibility Wind Speed Wind Dir Waves Ship Positions

Cable Innovator

Last reported at 2016-Apr-22 03:32 UTC. Time now 2016-May-01 21:18 UTC.
Position N 01°27' E 103°52'.
Warning: this ship's position is 9 days out of date.

Length 145.5 m; beam 24 m; draft 8.3 m.

Type: Cargo ship. MMSI: 233933000.

Date/timePositionNaut miles runAvg speedWind from/ knotsBaromVisibWave heightAir tempDewpointWater temp
2016-Apr-22 03:32N 01°27' E 103°52'1211.5
2016-Apr-22 02:32N 01°22' E 104°02'3 2.8
2016-Apr-22 01:30N 01°19' E 104°04'4 4.4
2016-Apr-22 00:33N 01°15' E 104°04'9 9.1
2016-Apr-21 23:33N 01°13' E 103°55'10 9.8
2016-Apr-21 22:33N 01°08' E 103°46'10 9.7
2016-Apr-21 21:33N 01°03' E 103°38'10 9.9
2016-Apr-21 20:33N 01°09' E 103°29'72 9.9
2016-Apr-21 13:15N 01°47' E 102°28'7 9.9
2016-Apr-21 12:30N 01°51' E 102°21'12 9.8
2016-Apr-21 11:17N 01°57' E 102°11'15 0.6
2016-Apr-20 10:33N 02°09' E 102°02'1 0.1
2016-Apr-19 22:24N 02°10' E 102°03'2 0.2
2016-Apr-19 10:31N 02°13' E 102°04'0 0.2
2016-Apr-19 09:06N 02°13' E 102°04'0 0.2
2016-Apr-19 08:31N 02°13' E 102°04'0 0.2
2016-Apr-19 07:31N 02°13' E 102°04'0 0.2
2016-Apr-19 06:06N 02°14' E 102°04'0 0.2
2016-Apr-19 05:33N 02°14' E 102°04'  
Track history (hours):
 
Tides and Currents Weather Stations Pressure Air Temp Water Temp Dewpoint Dewpoint Depression Visibility Wind Speed Wind Dir Waves Ship Positions

Cable Innovator

Last reported at 2016-Apr-22 03:32 UTC. Time now 2016-May-01 21:18 UTC.
Position N 01°27' E 103°52'.
Warning: this ship's position is 9 days out of date.

Length 145.5 m; beam 24 m; draft 8.3 m.

Type: Cargo ship. MMSI: 233933000.

Date/timePositionNaut miles runAvg speedWind from/ knotsBaromVisibWave heightAir tempDewpointWater temp
2016-Apr-22 03:32N 01°27' E 103°52'1211.5
2016-Apr-22 02:32N 01°22' E 104°02'3 2.8
2016-Apr-22 01:30N 01°19' E 104°04'4 4.4
2016-Apr-22 00:33N 01°15' E 104°04'9 9.1
2016-Apr-21 23:33N 01°13' E 103°55'10 9.8
2016-Apr-21 22:33N 01°08' E 103°46'10 9.7
2016-Apr-21 21:33N 01°03' E 103°38'10 9.9
2016-Apr-21 20:33N 01°09' E 103°29'72 9.9
2016-Apr-21 13:15N 01°47' E 102°28'7 9.9
2016-Apr-21 12:30N 01°51' E 102°21'12 9.8
2016-Apr-21 11:17N 01°57' E 102°11'15 0.6
2016-Apr-20 10:33N 02°09' E 102°02'1 0.1
2016-Apr-19 22:24N 02°10' E 102°03'2 0.2
2016-Apr-19 10:31N 02°13' E 102°04'0 0.2
2016-Apr-19 09:06N 02°13' E 102°04'0 0.2
2016-Apr-19 08:31N 02°13' E 102°04'0 0.2
2016-Apr-19 07:31N 02°13' E 102°04'0 0.2
2016-Apr-19 06:06N 02°14' E 102°04'0 0.2
2016-Apr-19 05:33N 02°14' E 102°04'  

Dump ship's entire track history